sensor_id;sensor_type;location;lat;lon;timestamp;temperature;humidity
78438;SHT31;67736;51.978;5.656;2023-03-31T00:02:08;13.3;68.6
78438;SHT31;67736;51.978;5.656;2023-03-31T00:04:41;13.3;68.7
78438;SHT31;67736;51.978;5.656;2023-03-31T00:07:14;13.3;68.8
78438;SHT31;67736;51.978;5.656;2023-03-31T00:09:48;13.3;68.8
78438;SHT31;67736;51.978;5.656;2023-03-31T00:12:21;13.3;68.9
78438;SHT31;67736;51.978;5.656;2023-03-31T00:14:50;13.3;69.0
78438;SHT31;67736;51.978;5.656;2023-03-31T00:17:20;13.3;69.1
78438;SHT31;67736;51.978;5.656;2023-03-31T00:19:49;13.3;69.2
78438;SHT31;67736;51.978;5.656;2023-03-31T00:22:20;13.3;69.2
78438;SHT31;67736;51.978;5.656;2023-03-31T00:24:53;13.3;69.3
78438;SHT31;67736;51.978;5.656;2023-03-31T00:27:23;13.3;69.3
78438;SHT31;67736;51.978;5.656;2023-03-31T00:29:54;13.3;69.3
78438;SHT31;67736;51.978;5.656;2023-03-31T00:32:25;13.3;69.3
78438;SHT31;67736;51.978;5.656;2023-03-31T00:34:55;13.3;69.2
78438;SHT31;67736;51.978;5.656;2023-03-31T00:37:24;13.4;69.2
78438;SHT31;67736;51.978;5.656;2023-03-31T00:39:54;13.4;69.1
78438;SHT31;67736;51.978;5.656;2023-03-31T00:42:25;13.4;69.1
78438;SHT31;67736;51.978;5.656;2023-03-31T00:45:22;13.4;69.2
78438;SHT31;67736;51.978;5.656;2023-03-31T00:48:00;13.4;69.3
78438;SHT31;67736;51.978;5.656;2023-03-31T00:50:34;13.4;69.6
78438;SHT31;67736;51.978;5.656;2023-03-31T00:53:09;13.4;69.9
78438;SHT31;67736;51.978;5.656;2023-03-31T00:55:44;13.4;70.1
78438;SHT31;67736;51.978;5.656;2023-03-31T00:58:15;13.4;70.4
78438;SHT31;67736;51.978;5.656;2023-03-31T01:00:48;13.4;70.9
78438;SHT31;67736;51.978;5.656;2023-03-31T01:03:19;13.4;71.6
78438;SHT31;67736;51.978;5.656;2023-03-31T01:05:53;13.4;72.0
78438;SHT31;67736;51.978;5.656;2023-03-31T01:08:25;13.4;72.1
78438;SHT31;67736;51.978;5.656;2023-03-31T01:10:57;13.4;72.1
78438;SHT31;67736;51.978;5.656;2023-03-31T01:13:29;13.4;72.2
78438;SHT31;67736;51.978;5.656;2023-03-31T01:16:00;13.3;72.3
78438;SHT31;67736;51.978;5.656;2023-03-31T01:18:30;13.4;72.3
78438;SHT31;67736;51.978;5.656;2023-03-31T01:23:33;13.4;72.2
78438;SHT31;67736;51.978;5.656;2023-03-31T01:28:09;13.4;72.0
78438;SHT31;67736;51.978;5.656;2023-03-31T01:31:13;13.4;71.8
78438;SHT31;67736;51.978;5.656;2023-03-31T01:34:13;13.4;71.6
78438;SHT31;67736;51.978;5.656;2023-03-31T01:41:20;13.4;71.2
78438;SHT31;67736;51.978;5.656;2023-03-31T01:44:02;13.4;71.2
78438;SHT31;67736;51.978;5.656;2023-03-31T01:46:39;13.4;71.2
78438;SHT31;67736;51.978;5.656;2023-03-31T01:49:19;13.4;70.9
78438;SHT31;67736;51.978;5.656;2023-03-31T01:51:56;13.4;70.9
78438;SHT31;67736;51.978;5.656;2023-03-31T01:54:35;13.5;70.9
78438;SHT31;67736;51.978;5.656;2023-03-31T01:57:13;13.5;70.9
78438;SHT31;67736;51.978;5.656;2023-03-31T01:59:54;13.5;70.9
78438;SHT31;67736;51.978;5.656;2023-03-31T02:02:31;13.5;71.0
78438;SHT31;67736;51.978;5.656;2023-03-31T02:05:06;13.5;71.1
78438;SHT31;67736;51.978;5.656;2023-03-31T02:07:42;13.5;71.1
78438;SHT31;67736;51.978;5.656;2023-03-31T02:10:18;13.5;71.1
78438;SHT31;67736;51.978;5.656;2023-03-31T02:12:50;13.5;71.2
78438;SHT31;67736;51.978;5.656;2023-03-31T02:15:26;13.5;71.1
78438;SHT31;67736;51.978;5.656;2023-03-31T02:18:00;13.5;71.1
78438;SHT31;67736;51.978;5.656;2023-03-31T02:20:32;13.5;71.1
78438;SHT31;67736;51.978;5.656;2023-03-31T02:23:02;13.5;71.0
78438;SHT31;67736;51.978;5.656;2023-03-31T02:25:37;13.5;71.0
78438;SHT31;67736;51.978;5.656;2023-03-31T02:28:11;13.5;71.0
78438;SHT31;67736;51.978;5.656;2023-03-31T02:30:47;13.5;71.1
78438;SHT31;67736;51.978;5.656;2023-03-31T02:33:17;13.5;71.2
78438;SHT31;67736;51.978;5.656;2023-03-31T02:35:47;13.5;71.3
78438;SHT31;67736;51.978;5.656;2023-03-31T02:38:17;13.5;71.4
78438;SHT31;67736;51.978;5.656;2023-03-31T02:40:46;13.5;71.6
78438;SHT31;67736;51.978;5.656;2023-03-31T02:43:16;13.5;71.9
78438;SHT31;67736;51.978;5.656;2023-03-31T02:45:47;13.4;72.2
78438;SHT31;67736;51.978;5.656;2023-03-31T02:48:22;13.4;72.4
78438;SHT31;67736;51.978;5.656;2023-03-31T02:53:08;13.4;72.5
78438;SHT31;67736;51.978;5.656;2023-03-31T02:55:58;13.4;72.7
78438;SHT31;67736;51.978;5.656;2023-03-31T02:58:45;13.4;72.5
78438;SHT31;67736;51.978;5.656;2023-03-31T03:01:35;13.4;72.4
78438;SHT31;67736;51.978;5.656;2023-03-31T03:04:18;13.4;72.2
78438;SHT31;67736;51.978;5.656;2023-03-31T03:07:00;13.4;72.1
78438;SHT31;67736;51.978;5.656;2023-03-31T03:09:43;13.4;72.0
78438;SHT31;67736;51.978;5.656;2023-03-31T03:12:19;13.4;72.1
78438;SHT31;67736;51.978;5.656;2023-03-31T03:14:58;13.4;72.0
78438;SHT31;67736;51.978;5.656;2023-03-31T03:17:34;13.4;72.0
78438;SHT31;67736;51.978;5.656;2023-03-31T03:20:07;13.4;71.8
78438;SHT31;67736;51.978;5.656;2023-03-31T03:22:39;13.4;71.6
78438;SHT31;67736;51.978;5.656;2023-03-31T03:25:11;13.4;71.4
78438;SHT31;67736;51.978;5.656;2023-03-31T03:27:41;13.4;71.6
78438;SHT31;67736;51.978;5.656;2023-03-31T03:30:12;13.4;70.9
78438;SHT31;67736;51.978;5.656;2023-03-31T03:32:42;13.4;71.0
78438;SHT31;67736;51.978;5.656;2023-03-31T03:35:12;13.4;71.1
78438;SHT31;67736;51.978;5.656;2023-03-31T03:37:44;13.4;71.2
78438;SHT31;67736;51.978;5.656;2023-03-31T03:40:14;13.3;71.4
78438;SHT31;67736;51.978;5.656;2023-03-31T03:42:43;13.3;71.5
78438;SHT31;67736;51.978;5.656;2023-03-31T03:45:13;13.3;71.7
78438;SHT31;67736;51.978;5.656;2023-03-31T03:47:42;13.3;71.7
78438;SHT31;67736;51.978;5.656;2023-03-31T03:50:12;13.3;72.0
78438;SHT31;67736;51.978;5.656;2023-03-31T03:52:42;13.3;72.1
78438;SHT31;67736;51.978;5.656;2023-03-31T03:55:12;13.3;72.2
78438;SHT31;67736;51.978;5.656;2023-03-31T03:57:41;13.3;72.5
78438;SHT31;67736;51.978;5.656;2023-03-31T04:00:11;13.3;72.4
78438;SHT31;67736;51.978;5.656;2023-03-31T04:02:43;13.3;72.5
78438;SHT31;67736;51.978;5.656;2023-03-31T04:05:13;13.3;72.7
78438;SHT31;67736;51.978;5.656;2023-03-31T04:07:42;13.3;72.9
78438;SHT31;67736;51.978;5.656;2023-03-31T04:10:12;13.3;73.1
78438;SHT31;67736;51.978;5.656;2023-03-31T04:12:42;13.2;73.3
78438;SHT31;67736;51.978;5.656;2023-03-31T04:15:12;13.2;73.5
78438;SHT31;67736;51.978;5.656;2023-03-31T04:17:41;13.2;73.6
78438;SHT31;67736;51.978;5.656;2023-03-31T04:20:16;13.2;73.8
78438;SHT31;67736;51.978;5.656;2023-03-31T04:22:46;13.2;74.0
78438;SHT31;67736;51.978;5.656;2023-03-31T04:25:17;13.2;74.0
78438;SHT31;67736;51.978;5.656;2023-03-31T04:27:50;13.1;74.1
78438;SHT31;67736;51.978;5.656;2023-03-31T04:30:24;13.1;74.2
78438;SHT31;67736;51.978;5.656;2023-03-31T04:32:59;13.1;74.0
78438;SHT31;67736;51.978;5.656;2023-03-31T04:35:30;13.1;74.0
78438;SHT31;67736;51.978;5.656;2023-03-31T04:38:05;13.1;74.0
78438;SHT31;67736;51.978;5.656;2023-03-31T04:40:35;13.1;74.0
78438;SHT31;67736;51.978;5.656;2023-03-31T04:43:06;13.1;74.1
78438;SHT31;67736;51.978;5.656;2023-03-31T04:45:36;13.0;74.3
78438;SHT31;67736;51.978;5.656;2023-03-31T04:48:06;13.0;74.5
78438;SHT31;67736;51.978;5.656;2023-03-31T04:50:35;13.0;74.6
78438;SHT31;67736;51.978;5.656;2023-03-31T04:53:05;13.0;74.7
78438;SHT31;67736;51.978;5.656;2023-03-31T04:55:35;13.0;74.7
78438;SHT31;67736;51.978;5.656;2023-03-31T04:58:05;13.0;74.7
78438;SHT31;67736;51.978;5.656;2023-03-31T05:00:34;13.0;74.4
78438;SHT31;67736;51.978;5.656;2023-03-31T05:03:04;13.0;74.5
78438;SHT31;67736;51.978;5.656;2023-03-31T05:05:33;13.0;74.4
78438;SHT31;67736;51.978;5.656;2023-03-31T05:08:03;13.0;74.4
78438;SHT31;67736;51.978;5.656;2023-03-31T05:10:35;13.0;74.5
78438;SHT31;67736;51.978;5.656;2023-03-31T05:13:04;13.0;74.4
78438;SHT31;67736;51.978;5.656;2023-03-31T05:15:38;13.0;74.3
78438;SHT31;67736;51.978;5.656;2023-03-31T05:18:08;13.0;74.2
78438;SHT31;67736;51.978;5.656;2023-03-31T05:20:37;13.0;74.2
78438;SHT31;67736;51.978;5.656;2023-03-31T05:23:09;13.0;74.3
78438;SHT31;67736;51.978;5.656;2023-03-31T05:25:39;13.0;74.4
78438;SHT31;67736;51.978;5.656;2023-03-31T05:28:09;13.0;74.3
78438;SHT31;67736;51.978;5.656;2023-03-31T05:30:38;13.0;74.1
78438;SHT31;67736;51.978;5.656;2023-03-31T05:33:09;13.0;74.2
78438;SHT31;67736;51.978;5.656;2023-03-31T05:35:39;13.0;74.0
78438;SHT31;67736;51.978;5.656;2023-03-31T05:38:08;13.0;73.8
78438;SHT31;67736;51.978;5.656;2023-03-31T05:40:38;13.0;73.9
78438;SHT31;67736;51.978;5.656;2023-03-31T05:43:07;13.0;73.9
78438;SHT31;67736;51.978;5.656;2023-03-31T05:45:37;13.0;73.8
78438;SHT31;67736;51.978;5.656;2023-03-31T05:48:08;12.9;73.8
78438;SHT31;67736;51.978;5.656;2023-03-31T05:50:40;12.9;73.7
78438;SHT31;67736;51.978;5.656;2023-03-31T05:53:10;12.9;73.7
78438;SHT31;67736;51.978;5.656;2023-03-31T05:55:42;12.9;73.7
78438;SHT31;67736;51.978;5.656;2023-03-31T05:58:12;12.9;73.8
78438;SHT31;67736;51.978;5.656;2023-03-31T06:00:43;12.9;73.9
78438;SHT31;67736;51.978;5.656;2023-03-31T06:03:12;12.9;74.1
78438;SHT31;67736;51.978;5.656;2023-03-31T06:05:47;12.9;73.8
78438;SHT31;67736;51.978;5.656;2023-03-31T06:08:20;12.9;73.7
78438;SHT31;67736;51.978;5.656;2023-03-31T06:10:50;12.9;73.3
78438;SHT31;67736;51.978;5.656;2023-03-31T06:13:20;12.8;73.1
78438;SHT31;67736;51.978;5.656;2023-03-31T06:15:57;12.8;73.0
78438;SHT31;67736;51.978;5.656;2023-03-31T06:18:28;12.8;73.2
78438;SHT31;67736;51.978;5.656;2023-03-31T06:20:58;12.8;73.2
78438;SHT31;67736;51.978;5.656;2023-03-31T06:23:27;12.8;73.2
78438;SHT31;67736;51.978;5.656;2023-03-31T06:26:01;12.8;73.0
78438;SHT31;67736;51.978;5.656;2023-03-31T06:28:30;12.8;73.0
78438;SHT31;67736;51.978;5.656;2023-03-31T06:31:03;12.9;73.0
78438;SHT31;67736;51.978;5.656;2023-03-31T06:33:33;12.9;72.8
78438;SHT31;67736;51.978;5.656;2023-03-31T06:36:03;12.9;72.9
78438;SHT31;67736;51.978;5.656;2023-03-31T06:38:35;12.9;73.0
78438;SHT31;67736;51.978;5.656;2023-03-31T06:41:06;12.9;72.9
78438;SHT31;67736;51.978;5.656;2023-03-31T06:43:37;13.0;72.4
78438;SHT31;67736;51.978;5.656;2023-03-31T06:46:08;13.0;72.3
78438;SHT31;67736;51.978;5.656;2023-03-31T06:48:37;13.0;72.5
78438;SHT31;67736;51.978;5.656;2023-03-31T06:51:09;13.0;71.8
78438;SHT31;67736;51.978;5.656;2023-03-31T06:53:39;13.0;71.7
78438;SHT31;67736;51.978;5.656;2023-03-31T06:56:08;13.1;71.7
78438;SHT31;67736;51.978;5.656;2023-03-31T06:58:39;13.1;72.1
78438;SHT31;67736;51.978;5.656;2023-03-31T07:01:09;13.1;71.9
78438;SHT31;67736;51.978;5.656;2023-03-31T07:03:40;13.1;71.8
78438;SHT31;67736;51.978;5.656;2023-03-31T07:06:09;13.1;72.1
78438;SHT31;67736;51.978;5.656;2023-03-31T07:08:39;13.1;72.1
78438;SHT31;67736;51.978;5.656;2023-03-31T07:11:09;13.1;72.1
78438;SHT31;67736;51.978;5.656;2023-03-31T07:13:38;13.1;72.0
78438;SHT31;67736;51.978;5.656;2023-03-31T07:16:08;13.2;72.1
78438;SHT31;67736;51.978;5.656;2023-03-31T07:18:40;13.2;72.2
78438;SHT31;67736;51.978;5.656;2023-03-31T07:21:11;13.2;72.4
78438;SHT31;67736;51.978;5.656;2023-03-31T07:23:41;13.2;72.5
78438;SHT31;67736;51.978;5.656;2023-03-31T07:26:10;13.2;72.8
78438;SHT31;67736;51.978;5.656;2023-03-31T07:28:40;13.2;72.9
78438;SHT31;67736;51.978;5.656;2023-03-31T07:31:14;13.2;73.1
78438;SHT31;67736;51.978;5.656;2023-03-31T07:33:43;13.2;73.1
78438;SHT31;67736;51.978;5.656;2023-03-31T07:36:13;13.2;73.1
78438;SHT31;67736;51.978;5.656;2023-03-31T07:38:45;13.2;73.3
78438;SHT31;67736;51.978;5.656;2023-03-31T07:41:19;13.2;73.3
78438;SHT31;67736;51.978;5.656;2023-03-31T07:43:49;13.2;73.3
78438;SHT31;67736;51.978;5.656;2023-03-31T07:46:21;13.2;73.3
78438;SHT31;67736;51.978;5.656;2023-03-31T07:48:52;13.3;73.1
78438;SHT31;67736;51.978;5.656;2023-03-31T07:51:25;13.3;73.1
78438;SHT31;67736;51.978;5.656;2023-03-31T07:53:55;13.3;73.1
78438;SHT31;67736;51.978;5.656;2023-03-31T07:56:24;13.3;73.2
78438;SHT31;67736;51.978;5.656;2023-03-31T07:58:55;13.3;73.1
78438;SHT31;67736;51.978;5.656;2023-03-31T08:01:25;13.3;73.2
78438;SHT31;67736;51.978;5.656;2023-03-31T08:03:56;13.4;73.5
78438;SHT31;67736;51.978;5.656;2023-03-31T08:06:26;13.4;73.2
78438;SHT31;67736;51.978;5.656;2023-03-31T08:08:58;13.4;73.2
78438;SHT31;67736;51.978;5.656;2023-03-31T08:11:27;13.4;73.4
78438;SHT31;67736;51.978;5.656;2023-03-31T08:13:57;13.4;73.3
78438;SHT31;67736;51.978;5.656;2023-03-31T08:16:29;13.4;73.5
78438;SHT31;67736;51.978;5.656;2023-03-31T08:18:58;13.4;73.9
78438;SHT31;67736;51.978;5.656;2023-03-31T08:21:28;13.4;74.2
78438;SHT31;67736;51.978;5.656;2023-03-31T08:23:58;13.4;74.2
78438;SHT31;67736;51.978;5.656;2023-03-31T08:26:29;13.4;74.6
78438;SHT31;67736;51.978;5.656;2023-03-31T08:29:01;13.4;74.0
78438;SHT31;67736;51.978;5.656;2023-03-31T08:31:31;13.4;73.9
78438;SHT31;67736;51.978;5.656;2023-03-31T08:34:00;13.4;73.8
78438;SHT31;67736;51.978;5.656;2023-03-31T08:36:31;13.5;74.7
78438;SHT31;67736;51.978;5.656;2023-03-31T08:39:00;13.5;75.1
78438;SHT31;67736;51.978;5.656;2023-03-31T08:41:39;13.5;74.6
78438;SHT31;67736;51.978;5.656;2023-03-31T08:44:17;13.6;74.8
78438;SHT31;67736;51.978;5.656;2023-03-31T08:46:50;13.6;74.9
78438;SHT31;67736;51.978;5.656;2023-03-31T08:49:22;13.7;74.5
78438;SHT31;67736;51.978;5.656;2023-03-31T08:51:56;13.7;75.1
78438;SHT31;67736;51.978;5.656;2023-03-31T08:54:32;13.8;75.3
78438;SHT31;67736;51.978;5.656;2023-03-31T08:57:09;13.9;74.5
78438;SHT31;67736;51.978;5.656;2023-03-31T08:59:39;13.9;74.0
78438;SHT31;67736;51.978;5.656;2023-03-31T09:02:16;13.9;74.2
78438;SHT31;67736;51.978;5.656;2023-03-31T09:05:05;14.0;73.8
78438;SHT31;67736;51.978;5.656;2023-03-31T09:07:50;14.0;73.4
78438;SHT31;67736;51.978;5.656;2023-03-31T09:10:37;14.1;73.3
78438;SHT31;67736;51.978;5.656;2023-03-31T09:13:21;14.1;73.7
78438;SHT31;67736;51.978;5.656;2023-03-31T09:15:58;14.2;73.5
78438;SHT31;67736;51.978;5.656;2023-03-31T09:18:32;14.2;72.4
78438;SHT31;67736;51.978;5.656;2023-03-31T09:21:09;14.3;72.6
78438;SHT31;67736;51.978;5.656;2023-03-31T09:23:46;14.3;72.6
78438;SHT31;67736;51.978;5.656;2023-03-31T09:26:23;14.4;72.3
78438;SHT31;67736;51.978;5.656;2023-03-31T09:28:58;14.4;72.8
78438;SHT31;67736;51.978;5.656;2023-03-31T09:31:30;14.4;72.5
78438;SHT31;67736;51.978;5.656;2023-03-31T09:34:11;14.5;71.4
78438;SHT31;67736;51.978;5.656;2023-03-31T09:36:42;14.5;71.5
78438;SHT31;67736;51.978;5.656;2023-03-31T09:39:13;14.5;71.4
78438;SHT31;67736;51.978;5.656;2023-03-31T09:41:48;14.6;72.0
78438;SHT31;67736;51.978;5.656;2023-03-31T09:44:23;14.6;70.9
78438;SHT31;67736;51.978;5.656;2023-03-31T09:46:54;14.7;69.8
78438;SHT31;67736;51.978;5.656;2023-03-31T09:49:27;14.7;69.9
78438;SHT31;67736;51.978;5.656;2023-03-31T09:52:05;14.7;70.1
78438;SHT31;67736;51.978;5.656;2023-03-31T09:54:43;14.8;69.1
78438;SHT31;67736;51.978;5.656;2023-03-31T09:57:25;14.8;68.2
78438;SHT31;67736;51.978;5.656;2023-03-31T10:00:03;14.8;67.6
78438;SHT31;67736;51.978;5.656;2023-03-31T10:02:42;14.9;67.4
78438;SHT31;67736;51.978;5.656;2023-03-31T10:05:26;14.9;67.4
78438;SHT31;67736;51.978;5.656;2023-03-31T10:08:18;14.9;67.2
78438;SHT31;67736;51.978;5.656;2023-03-31T10:10:50;14.9;67.7
78438;SHT31;67736;51.978;5.656;2023-03-31T10:13:24;15.0;66.5
78438;SHT31;67736;51.978;5.656;2023-03-31T10:16:03;15.0;66.1
78438;SHT31;67736;51.978;5.656;2023-03-31T10:18:37;15.0;65.8
78438;SHT31;67736;51.978;5.656;2023-03-31T10:21:20;15.0;65.0
78438;SHT31;67736;51.978;5.656;2023-03-31T10:23:50;15.0;65.5
78438;SHT31;67736;51.978;5.656;2023-03-31T10:26:24;15.0;66.1
78438;SHT31;67736;51.978;5.656;2023-03-31T10:28:55;15.1;65.4
78438;SHT31;67736;51.978;5.656;2023-03-31T10:31:32;15.1;65.3
78438;SHT31;67736;51.978;5.656;2023-03-31T10:34:04;15.1;64.2
78438;SHT31;67736;51.978;5.656;2023-03-31T10:36:35;15.1;63.9
78438;SHT31;67736;51.978;5.656;2023-03-31T10:39:06;15.2;64.1
78438;SHT31;67736;51.978;5.656;2023-03-31T10:41:38;15.2;64.6
78438;SHT31;67736;51.978;5.656;2023-03-31T10:44:31;15.2;63.8
78438;SHT31;67736;51.978;5.656;2023-03-31T10:47:15;15.3;64.4
78438;SHT31;67736;51.978;5.656;2023-03-31T10:49:43;15.3;63.3
78438;SHT31;67736;51.978;5.656;2023-03-31T10:52:18;15.4;63.7
78438;SHT31;67736;51.978;5.656;2023-03-31T10:54:51;15.5;62.8
78438;SHT31;67736;51.978;5.656;2023-03-31T10:57:33;15.5;62.7
78438;SHT31;67736;51.978;5.656;2023-03-31T11:00:08;15.6;62.0
78438;SHT31;67736;51.978;5.656;2023-03-31T11:03:13;15.6;61.4
78438;SHT31;67736;51.978;5.656;2023-03-31T11:05:48;15.7;62.2
78438;SHT31;67736;51.978;5.656;2023-03-31T11:08:34;15.7;61.7
78438;SHT31;67736;51.978;5.656;2023-03-31T11:11:20;15.8;62.2
78438;SHT31;67736;51.978;5.656;2023-03-31T11:13:56;15.8;61.9
78438;SHT31;67736;51.978;5.656;2023-03-31T11:16:35;15.8;62.4
78438;SHT31;67736;51.978;5.656;2023-03-31T11:19:12;15.9;62.3
78438;SHT31;67736;51.978;5.656;2023-03-31T11:21:59;15.9;61.8
78438;SHT31;67736;51.978;5.656;2023-03-31T11:24:42;15.9;61.0
78438;SHT31;67736;51.978;5.656;2023-03-31T11:27:29;16.0;61.8
78438;SHT31;67736;51.978;5.656;2023-03-31T11:30:11;16.0;61.3
78438;SHT31;67736;51.978;5.656;2023-03-31T11:32:50;16.0;61.0
78438;SHT31;67736;51.978;5.656;2023-03-31T11:35:46;16.0;60.9
78438;SHT31;67736;51.978;5.656;2023-03-31T11:38:35;16.0;60.9
78438;SHT31;67736;51.978;5.656;2023-03-31T11:41:12;16.0;61.4
78438;SHT31;67736;51.978;5.656;2023-03-31T11:43:46;16.0;60.9
78438;SHT31;67736;51.978;5.656;2023-03-31T11:46:22;16.0;60.9
78438;SHT31;67736;51.978;5.656;2023-03-31T11:48:56;16.0;60.4
78438;SHT31;67736;51.978;5.656;2023-03-31T11:51:31;16.0;61.1
78438;SHT31;67736;51.978;5.656;2023-03-31T11:54:05;16.0;60.6
78438;SHT31;67736;51.978;5.656;2023-03-31T11:56:39;16.0;60.2
78438;SHT31;67736;51.978;5.656;2023-03-31T11:59:13;16.0;59.8
78438;SHT31;67736;51.978;5.656;2023-03-31T12:01:49;16.0;61.2
78438;SHT31;67736;51.978;5.656;2023-03-31T12:04:31;15.9;60.2
78438;SHT31;67736;51.978;5.656;2023-03-31T12:07:14;15.9;60.1
78438;SHT31;67736;51.978;5.656;2023-03-31T12:09:53;15.9;60.0
78438;SHT31;67736;51.978;5.656;2023-03-31T12:12:30;15.9;59.6
78438;SHT31;67736;51.978;5.656;2023-03-31T12:15:09;15.9;59.5
78438;SHT31;67736;51.978;5.656;2023-03-31T12:17:45;15.9;59.1
78438;SHT31;67736;51.978;5.656;2023-03-31T12:20:22;15.9;59.4
78438;SHT31;67736;51.978;5.656;2023-03-31T12:22:54;15.8;58.8
78438;SHT31;67736;51.978;5.656;2023-03-31T12:25:36;15.8;59.8
78438;SHT31;67736;51.978;5.656;2023-03-31T12:28:08;15.8;60.3
78438;SHT31;67736;51.978;5.656;2023-03-31T12:30:40;15.8;60.6
78438;SHT31;67736;51.978;5.656;2023-03-31T12:33:17;15.8;61.3
78438;SHT31;67736;51.978;5.656;2023-03-31T12:36:01;15.8;61.2
78438;SHT31;67736;51.978;5.656;2023-03-31T12:38:40;15.8;60.9
78438;SHT31;67736;51.978;5.656;2023-03-31T12:41:22;15.8;61.5
78438;SHT31;67736;51.978;5.656;2023-03-31T12:44:07;15.8;61.2
78438;SHT31;67736;51.978;5.656;2023-03-31T12:47:42;15.7;61.3
78438;SHT31;67736;51.978;5.656;2023-03-31T12:50:35;15.6;61.0
78438;SHT31;67736;51.978;5.656;2023-03-31T12:53:16;15.6;63.0
78438;SHT31;67736;51.978;5.656;2023-03-31T12:55:48;15.5;63.0
78438;SHT31;67736;51.978;5.656;2023-03-31T12:58:38;15.5;64.3
78438;SHT31;67736;51.978;5.656;2023-03-31T13:01:13;15.4;64.1
78438;SHT31;67736;51.978;5.656;2023-03-31T13:03:46;15.4;64.4
78438;SHT31;67736;51.978;5.656;2023-03-31T13:06:50;15.4;64.4
78438;SHT31;67736;51.978;5.656;2023-03-31T13:09:40;15.4;65.0
78438;SHT31;67736;51.978;5.656;2023-03-31T13:12:13;15.4;64.4
78438;SHT31;67736;51.978;5.656;2023-03-31T13:14:45;15.4;63.8
78438;SHT31;67736;51.978;5.656;2023-03-31T13:17:23;15.4;63.0
78438;SHT31;67736;51.978;5.656;2023-03-31T13:19:54;15.4;62.9
78438;SHT31;67736;51.978;5.656;2023-03-31T13:22:32;15.5;61.5
78438;SHT31;67736;51.978;5.656;2023-03-31T13:25:31;15.5;60.5
78438;SHT31;67736;51.978;5.656;2023-03-31T13:28:09;15.5;61.2
78438;SHT31;67736;51.978;5.656;2023-03-31T13:30:48;15.5;62.0
78438;SHT31;67736;51.978;5.656;2023-03-31T13:33:22;15.5;62.6
78438;SHT31;67736;51.978;5.656;2023-03-31T13:36:09;15.5;63.1
78438;SHT31;67736;51.978;5.656;2023-03-31T13:38:51;15.5;62.2
78438;SHT31;67736;51.978;5.656;2023-03-31T13:41:33;15.5;62.2
78438;SHT31;67736;51.978;5.656;2023-03-31T13:44:30;15.5;62.3
78438;SHT31;67736;51.978;5.656;2023-03-31T13:48:03;15.5;61.6
78438;SHT31;67736;51.978;5.656;2023-03-31T13:50:45;15.5;62.1
78438;SHT31;67736;51.978;5.656;2023-03-31T13:54:09;15.5;63.4
78438;SHT31;67736;51.978;5.656;2023-03-31T13:56:57;15.5;63.8
78438;SHT31;67736;51.978;5.656;2023-03-31T13:59:43;15.4;64.0
78438;SHT31;67736;51.978;5.656;2023-03-31T14:02:41;15.4;64.4
78438;SHT31;67736;51.978;5.656;2023-03-31T14:05:23;15.4;65.0
78438;SHT31;67736;51.978;5.656;2023-03-31T14:07:56;15.3;64.3
78438;SHT31;67736;51.978;5.656;2023-03-31T14:10:30;15.3;64.6
78438;SHT31;67736;51.978;5.656;2023-03-31T14:13:11;15.2;65.2
78438;SHT31;67736;51.978;5.656;2023-03-31T14:15:47;15.1;66.6
78438;SHT31;67736;51.978;5.656;2023-03-31T14:18:22;15.1;66.6
78438;SHT31;67736;51.978;5.656;2023-03-31T14:21:13;15.0;66.9
78438;SHT31;67736;51.978;5.656;2023-03-31T14:23:59;15.0;66.8
78438;SHT31;67736;51.978;5.656;2023-03-31T14:26:46;14.9;66.7
78438;SHT31;67736;51.978;5.656;2023-03-31T14:29:24;14.9;65.6
78438;SHT31;67736;51.978;5.656;2023-03-31T14:32:00;14.9;66.6
78438;SHT31;67736;51.978;5.656;2023-03-31T14:34:46;14.8;65.8
78438;SHT31;67736;51.978;5.656;2023-03-31T14:37:20;14.8;66.1
78438;SHT31;67736;51.978;5.656;2023-03-31T14:39:52;14.8;66.5
78438;SHT31;67736;51.978;5.656;2023-03-31T14:42:26;14.8;66.2
78438;SHT31;67736;51.978;5.656;2023-03-31T14:45:02;14.8;66.7
78438;SHT31;67736;51.978;5.656;2023-03-31T14:47:32;14.8;66.6
78438;SHT31;67736;51.978;5.656;2023-03-31T14:50:10;14.8;66.4
78438;SHT31;67736;51.978;5.656;2023-03-31T14:52:47;14.8;66.2
78438;SHT31;67736;51.978;5.656;2023-03-31T14:55:21;14.7;66.0
78438;SHT31;67736;51.978;5.656;2023-03-31T14:57:53;14.7;66.5
78438;SHT31;67736;51.978;5.656;2023-03-31T15:00:27;14.7;66.3
78438;SHT31;67736;51.978;5.656;2023-03-31T15:02:59;14.7;66.1
78438;SHT31;67736;51.978;5.656;2023-03-31T15:05:32;14.7;66.7
78438;SHT31;67736;51.978;5.656;2023-03-31T15:08:05;14.7;66.7
78438;SHT31;67736;51.978;5.656;2023-03-31T15:10:39;14.7;66.1
78438;SHT31;67736;51.978;5.656;2023-03-31T15:13:11;14.7;66.1
78438;SHT31;67736;51.978;5.656;2023-03-31T15:15:43;14.6;66.4
78438;SHT31;67736;51.978;5.656;2023-03-31T15:18:14;14.6;66.6
78438;SHT31;67736;51.978;5.656;2023-03-31T15:20:45;14.6;66.8
78438;SHT31;67736;51.978;5.656;2023-03-31T15:23:22;14.5;66.9
78438;SHT31;67736;51.978;5.656;2023-03-31T15:25:58;14.5;67.3
78438;SHT31;67736;51.978;5.656;2023-03-31T15:28:35;14.5;67.9
78438;SHT31;67736;51.978;5.656;2023-03-31T15:31:06;14.5;68.2
78438;SHT31;67736;51.978;5.656;2023-03-31T15:33:36;14.4;68.2
78438;SHT31;67736;51.978;5.656;2023-03-31T15:36:10;14.4;68.7
78438;SHT31;67736;51.978;5.656;2023-03-31T15:38:40;14.4;68.3
78438;SHT31;67736;51.978;5.656;2023-03-31T15:41:15;14.4;68.8
78438;SHT31;67736;51.978;5.656;2023-03-31T15:43:47;14.4;68.4
78438;SHT31;67736;51.978;5.656;2023-03-31T15:46:24;14.4;68.0
78438;SHT31;67736;51.978;5.656;2023-03-31T15:48:59;14.4;67.6
78438;SHT31;67736;51.978;5.656;2023-03-31T15:51:33;14.3;67.9
78438;SHT31;67736;51.978;5.656;2023-03-31T15:54:26;14.3;67.9
78438;SHT31;67736;51.978;5.656;2023-03-31T15:56:59;14.3;68.3
78438;SHT31;67736;51.978;5.656;2023-03-31T15:59:30;14.3;67.9
78438;SHT31;67736;51.978;5.656;2023-03-31T16:02:00;14.3;68.6
78438;SHT31;67736;51.978;5.656;2023-03-31T16:04:31;14.3;68.5
78438;SHT31;67736;51.978;5.656;2023-03-31T16:07:04;14.3;68.4
78438;SHT31;67736;51.978;5.656;2023-03-31T16:09:44;14.3;68.9
78438;SHT31;67736;51.978;5.656;2023-03-31T16:12:20;14.3;68.6
78438;SHT31;67736;51.978;5.656;2023-03-31T16:14:56;14.3;68.2
78438;SHT31;67736;51.978;5.656;2023-03-31T16:17:31;14.3;67.8
78438;SHT31;67736;51.978;5.656;2023-03-31T16:20:05;14.3;68.2
78438;SHT31;67736;51.978;5.656;2023-03-31T16:22:41;14.2;67.5
78438;SHT31;67736;51.978;5.656;2023-03-31T16:25:15;14.2;68.0
78438;SHT31;67736;51.978;5.656;2023-03-31T16:27:48;14.2;67.8
78438;SHT31;67736;51.978;5.656;2023-03-31T16:30:21;14.1;68.0
78438;SHT31;67736;51.978;5.656;2023-03-31T16:32:59;14.1;68.5
78438;SHT31;67736;51.978;5.656;2023-03-31T16:35:34;14.1;68.6
78438;SHT31;67736;51.978;5.656;2023-03-31T16:38:08;14.0;68.6
78438;SHT31;67736;51.978;5.656;2023-03-31T16:40:39;14.0;68.3
78438;SHT31;67736;51.978;5.656;2023-03-31T16:43:12;14.0;68.5
78438;SHT31;67736;51.978;5.656;2023-03-31T16:45:44;13.9;69.1
78438;SHT31;67736;51.978;5.656;2023-03-31T16:48:15;13.9;68.9
78438;SHT31;67736;51.978;5.656;2023-03-31T16:50:46;13.9;69.3
78438;SHT31;67736;51.978;5.656;2023-03-31T16:53:18;13.9;69.6
78438;SHT31;67736;51.978;5.656;2023-03-31T16:55:48;13.8;69.9
78438;SHT31;67736;51.978;5.656;2023-03-31T16:58:18;13.8;70.1
78438;SHT31;67736;51.978;5.656;2023-03-31T17:00:51;13.8;70.1
78438;SHT31;67736;51.978;5.656;2023-03-31T17:03:21;13.8;70.0
78438;SHT31;67736;51.978;5.656;2023-03-31T17:05:52;13.7;70.2